createdAt,value
2023-04-11T00:04:34.651Z,10.72
2023-04-11T00:09:36.599Z,10.54
2023-04-11T00:14:38.400Z,10.47
2023-04-11T00:19:40.333Z,10.54
2023-04-11T00:24:42.057Z,10.42
2023-04-11T00:29:43.762Z,10.31
2023-04-11T00:34:45.523Z,10.18
2023-04-11T00:39:50.517Z,10.20
2023-04-11T00:44:52.253Z,10.00
2023-04-11T00:49:54.072Z,10.14
2023-04-11T00:54:56.051Z,10.20
2023-04-11T00:59:58.833Z,10.08
2023-04-11T01:05:00.913Z,9.89
2023-04-11T01:10:03.394Z,9.75
2023-04-11T01:15:06.369Z,9.51
2023-04-11T01:20:09.417Z,9.65
2023-04-11T01:25:12.492Z,9.54
2023-04-11T01:30:14.972Z,9.41
2023-04-11T01:35:18.189Z,9.40
2023-04-11T01:40:21.428Z,9.27
2023-04-11T01:45:23.805Z,9.19
2023-04-11T01:50:25.876Z,9.33
2023-04-11T01:55:27.734Z,9.20
2023-04-11T02:00:29.499Z,9.13
2023-04-11T02:05:31.222Z,9.10
2023-04-11T02:10:32.933Z,9.05
2023-04-11T02:15:37.304Z,9.06
2023-04-11T02:20:40.622Z,9.24
2023-04-11T02:25:42.992Z,9.19
2023-04-11T02:30:44.786Z,9.13
2023-04-11T02:35:47.372Z,9.13
2023-04-11T02:40:49.155Z,9.21
2023-04-11T02:45:54.204Z,9.28
2023-04-11T02:50:58.534Z,9.31
2023-04-11T02:56:00.810Z,9.22
2023-04-11T03:01:03.300Z,9.26
2023-04-11T03:06:06.986Z,9.15
2023-04-11T03:11:10.136Z,9.03
2023-04-11T03:16:13.985Z,9.01
2023-04-11T03:21:16.204Z,8.92
2023-04-11T03:26:20.077Z,8.82
2023-04-11T03:31:22.197Z,8.78
2023-04-11T03:36:29.971Z,8.75
2023-04-11T03:41:37.511Z,8.70
2023-04-11T03:46:42.130Z,8.52
2023-04-11T03:51:45.083Z,8.49
2023-04-11T03:56:47.051Z,8.49
2023-04-11T04:01:55.314Z,8.41
2023-04-11T04:06:57.422Z,8.35
2023-04-11T04:12:07.682Z,8.26
2023-04-11T04:17:29.567Z,8.22
2023-04-11T04:22:31.775Z,8.13
2023-04-11T04:27:36.075Z,8.15
2023-04-11T04:32:37.999Z,8.15
2023-04-11T04:37:45.772Z,8.10
2023-04-11T04:42:59.146Z,7.74
2023-04-11T04:48:14.551Z,7.93
2023-04-11T04:53:16.911Z,7.89
2023-04-11T04:58:23.638Z,8.01
2023-04-11T05:03:25.801Z,7.93
2023-04-11T05:08:27.884Z,7.98
2023-04-11T05:13:34.177Z,8.03
2023-04-11T05:18:37.872Z,8.01
2023-04-11T05:23:40.436Z,8.05
2023-04-11T05:28:42.432Z,8.03
2023-04-11T05:33:48.705Z,8.19
2023-04-11T05:38:50.817Z,8.42
2023-04-11T05:43:52.600Z,8.64
2023-04-11T05:48:54.927Z,8.99
2023-04-11T05:53:56.809Z,9.25
2023-04-11T05:58:58.626Z,9.43
2023-04-11T06:04:00.558Z,9.38
2023-04-11T06:09:02.757Z,9.07
2023-04-11T06:14:04.593Z,9.09
2023-04-11T06:19:06.370Z,9.26
2023-04-11T06:24:10.111Z,9.34
2023-04-11T06:29:11.886Z,9.42
2023-04-11T06:34:13.620Z,9.36
2023-04-11T06:39:19.249Z,9.44
2023-04-11T06:44:21.037Z,9.55
2023-04-11T06:49:23.023Z,9.87
2023-04-11T06:54:24.904Z,9.72
2023-04-11T06:59:27.445Z,9.72
2023-04-11T07:04:29.405Z,9.79
2023-04-11T07:09:31.833Z,10.30
2023-04-11T07:14:33.579Z,10.35
2023-04-11T07:19:35.588Z,10.14
2023-04-11T07:24:37.450Z,9.88
2023-04-11T07:29:39.177Z,10.50
2023-04-11T07:34:40.906Z,10.82
2023-04-11T07:39:42.829Z,10.40
2023-04-11T07:44:44.544Z,10.79
2023-04-11T07:49:46.253Z,10.82
2023-04-11T07:54:47.997Z,11.32
2023-04-11T07:59:49.744Z,11.22
2023-04-11T08:04:51.605Z,11.27
2023-04-11T08:09:53.363Z,11.35
2023-04-11T08:14:55.091Z,11.26
2023-04-11T08:19:57.870Z,11.43
2023-04-11T08:24:59.645Z,11.60
2023-04-11T08:30:01.962Z,11.55
2023-04-11T08:35:04.760Z,11.36
2023-04-11T08:40:07.309Z,11.27
2023-04-11T08:45:10.303Z,11.95
2023-04-11T08:50:12.152Z,12.58
2023-04-11T08:55:13.871Z,12.86
2023-04-11T09:00:19.023Z,12.74
2023-04-11T09:05:25.718Z,13.09
2023-04-11T09:10:28.007Z,13.12
2023-04-11T09:15:31.703Z,13.18
2023-04-11T09:20:33.458Z,13.32
2023-04-11T09:25:44.764Z,13.42
2023-04-11T09:30:52.407Z,13.68
2023-04-11T09:35:56.946Z,14.16
2023-04-11T09:41:00.826Z,14.62
2023-04-11T09:46:12.350Z,14.46
2023-04-11T09:51:27.616Z,14.15
2023-04-11T09:56:34.956Z,13.37
2023-04-11T10:01:39.569Z,14.24
2023-04-11T10:07:02.343Z,14.27
2023-04-11T10:12:04.640Z,13.44
2023-04-11T10:17:16.920Z,12.72
2023-04-11T10:22:46.626Z,13.61
2023-04-11T10:27:50.596Z,14.44
2023-04-11T10:33:12.368Z,15.07
2023-04-11T10:38:43.342Z,14.76
2023-04-11T10:43:46.209Z,14.70
2023-04-11T10:49:03.164Z,14.19
2023-04-11T10:54:05.300Z,14.27
2023-04-11T10:59:31.215Z,13.68
2023-04-11T11:04:40.179Z,13.58
2023-04-11T11:09:48.333Z,13.76
2023-04-11T11:14:50.071Z,14.09
2023-04-11T11:19:51.909Z,14.11
2023-04-11T11:24:53.696Z,14.33
2023-04-11T11:29:55.693Z,14.08
2023-04-11T11:40:22.071Z,14.08
2023-04-11T11:50:32.533Z,13.97
2023-04-11T11:55:34.335Z,13.72
2023-04-11T12:00:38.418Z,13.77
2023-04-11T12:05:41.657Z,14.17
2023-04-11T12:10:46.453Z,14.59
2023-04-11T12:15:54.586Z,14.87
2023-04-11T12:20:56.605Z,15.20
2023-04-11T12:25:58.335Z,15.32
2023-04-11T12:31:00.128Z,15.87
2023-04-11T12:36:01.993Z,15.72
2023-04-11T12:41:29.486Z,15.84
2023-04-11T12:46:26.402Z,15.60
2023-04-11T12:51:28.164Z,15.56
2023-04-11T12:56:30.060Z,15.56
2023-04-11T13:01:31.983Z,16.28
2023-04-11T13:06:34.158Z,15.83
2023-04-11T13:11:36.311Z,15.95
2023-04-11T13:16:38.589Z,15.48
2023-04-11T13:21:40.972Z,15.52
2023-04-11T13:26:44.923Z,15.63
2023-04-11T13:31:47.358Z,15.88
2023-04-11T13:36:49.752Z,15.39
2023-04-11T13:41:51.500Z,15.76
2023-04-11T13:46:53.274Z,15.64
2023-04-11T13:51:55.009Z,15.60
2023-04-11T13:56:57.010Z,16.08
2023-04-11T14:01:58.811Z,16.11
2023-04-11T14:07:00.541Z,15.94
2023-04-11T14:12:02.342Z,15.89
2023-04-11T14:17:04.165Z,15.86
2023-04-11T14:22:05.968Z,16.08
2023-04-11T14:27:08.860Z,16.41
2023-04-11T14:32:10.774Z,16.30
2023-04-11T14:37:12.563Z,15.59
2023-04-11T14:42:14.354Z,15.76
2023-04-11T14:47:16.254Z,16.00
2023-04-11T14:52:18.063Z,15.91
2023-04-11T14:57:22.820Z,15.43
2023-04-11T15:02:24.741Z,15.81
2023-04-11T15:07:26.635Z,16.12
2023-04-11T15:12:28.428Z,16.13
2023-04-11T15:17:30.395Z,15.69
2023-04-11T15:22:32.138Z,15.26
2023-04-11T15:27:34.195Z,15.23
2023-04-11T15:32:36.453Z,15.07
2023-04-11T15:37:38.238Z,14.94
2023-04-11T15:42:41.260Z,14.78
2023-04-11T15:47:43.034Z,14.51
2023-04-11T15:52:44.837Z,14.57
2023-04-11T15:57:46.796Z,14.71
2023-04-11T16:02:49.860Z,14.62
2023-04-11T16:07:52.011Z,14.13
2023-04-11T16:12:53.756Z,13.84
2023-04-11T16:17:55.526Z,13.77
2023-04-11T16:22:57.352Z,13.88
2023-04-11T16:27:59.119Z,13.75
2023-04-11T16:33:00.870Z,13.70
2023-04-11T16:38:03.160Z,13.76
2023-04-11T16:43:04.970Z,13.76
2023-04-11T16:48:08.165Z,13.49
2023-04-11T16:53:09.991Z,13.22
2023-04-11T16:58:11.893Z,13.11
2023-04-11T17:03:13.773Z,13.10
2023-04-11T17:08:17.472Z,13.13
2023-04-11T17:13:19.525Z,12.89
2023-04-11T17:18:21.231Z,12.43
2023-04-11T17:23:35.089Z,12.40
2023-04-11T17:28:41.065Z,12.30
2023-04-11T17:33:42.980Z,12.27
2023-04-11T17:38:45.668Z,12.21
2023-04-11T17:43:47.516Z,12.18
2023-04-11T17:48:49.301Z,12.02
2023-04-11T17:53:51.069Z,11.94
2023-04-11T17:58:53.048Z,11.93
2023-04-11T18:03:55.018Z,11.82
2023-04-11T18:08:56.963Z,11.73
2023-04-11T18:13:59.047Z,11.60
2023-04-11T18:19:01.043Z,11.49
2023-04-11T18:24:04.100Z,11.42
2023-04-11T18:29:06.177Z,11.27
2023-04-11T18:34:08.351Z,11.09
2023-04-11T18:39:11.180Z,10.94
2023-04-11T18:44:13.226Z,10.87
2023-04-11T18:49:17.661Z,10.76
2023-04-11T18:54:21.374Z,10.68
2023-04-11T18:59:28.523Z,10.56
2023-04-11T19:04:33.915Z,10.51
2023-04-11T19:09:35.766Z,10.42
2023-04-11T19:14:37.518Z,10.34
2023-04-11T19:19:39.404Z,10.13
2023-04-11T19:24:41.339Z,10.00
2023-04-11T19:29:43.036Z,9.95
2023-04-11T19:34:45.652Z,9.94
2023-04-11T19:39:47.871Z,9.97
2023-04-11T19:44:50.136Z,9.89
2023-04-11T19:49:52.286Z,9.84
2023-04-11T19:54:55.355Z,9.77
2023-04-11T19:59:57.979Z,9.67
2023-04-11T20:05:01.742Z,9.61
2023-04-11T20:10:04.014Z,9.59
2023-04-11T20:15:06.333Z,9.71
2023-04-11T20:20:09.004Z,9.73
2023-04-11T20:25:13.859Z,9.54
2023-04-11T20:30:17.239Z,9.40
2023-04-11T20:35:19.555Z,9.24
2023-04-11T20:40:21.467Z,9.29
2023-04-11T20:45:25.794Z,9.23
2023-04-11T20:50:33.269Z,9.17
2023-04-11T20:55:35.141Z,9.03
2023-04-11T21:00:37.881Z,9.04
2023-04-11T21:05:44.224Z,9.05
2023-04-11T21:10:46.070Z,9.07
2023-04-11T21:15:47.880Z,9.02
2023-04-11T21:20:49.683Z,8.96
2023-04-11T21:25:51.487Z,8.97
2023-04-11T21:30:53.257Z,9.02
2023-04-11T21:35:55.488Z,9.04
2023-04-11T21:40:58.354Z,9.10
2023-04-11T21:46:00.303Z,9.07
2023-04-11T21:51:03.593Z,9.11
2023-04-11T21:56:07.363Z,9.11
2023-04-11T22:01:12.630Z,9.02
2023-04-11T22:06:14.342Z,8.98
2023-04-11T22:11:17.708Z,8.88
2023-04-11T22:16:19.516Z,8.97
2023-04-11T22:21:21.327Z,8.90
2023-04-11T22:26:34.136Z,8.92
2023-04-11T22:31:38.658Z,8.88
2023-04-11T22:36:40.991Z,8.90
2023-04-11T22:41:43.120Z,8.85
2023-04-11T22:47:00.416Z,8.41
2023-04-11T22:52:02.301Z,8.46
2023-04-11T22:57:04.027Z,8.60
2023-04-11T23:02:05.785Z,8.68
2023-04-11T23:07:08.699Z,8.70
2023-04-11T23:12:10.461Z,8.58
2023-04-11T23:17:15.774Z,8.61
2023-04-11T23:22:18.341Z,8.62
2023-04-11T23:27:20.922Z,8.69
2023-04-11T23:32:22.966Z,8.67
2023-04-11T23:37:27.246Z,8.72
2023-04-11T23:42:28.962Z,8.78
2023-04-11T23:47:30.703Z,8.80
2023-04-11T23:52:32.466Z,8.85
2023-04-11T23:57:34.417Z,8.82
